Time;durP1;ratioP1;P1;durP2;ratioP2;P2;SDS_P1;SDS_P2;PMS_P1;PMS_P2;Temp;Humidity;BMP_temperature;BMP_pressure;BME280_temperature;BME280_humidity;BME280_pressure;Samples;Min_cycle;Max_cycle;Signal;HPM_P1;HPM_P2
2023/10/14 00:01:07;;;;;;;1.75;0.40;;;;;;;13.16;100.00;99332.44;4966736;28;20181;-42
2023/10/14 00:03:33;;;;;;;2.15;0.40;;;;;;;13.12;100.00;99338.16;4968992;28;20325;-42
2023/10/14 00:06:06;;;;;;;1.05;0.40;;;;;;;13.05;100.00;99316.19;4973298;28;20182;-43
2023/10/14 00:08:39;;;;;;;3.88;0.60;;;;;;;13.01;100.00;99298.59;4971817;28;20194;-43
2023/10/14 00:11:06;;;;;;;2.72;0.60;;;;;;;13.06;100.00;99309.84;4964318;28;20241;-44
2023/10/14 00:13:41;;;;;;;3.25;0.60;;;;;;;13.05;100.00;99336.84;4970251;28;20305;-43
2023/10/14 00:16:11;;;;;;;0.85;0.50;;;;;;;13.09;100.00;99322.22;4970364;28;20190;-41
2023/10/14 00:18:42;;;;;;;0.77;0.40;;;;;;;13.03;100.00;99315.47;4968674;28;20214;-42
2023/10/14 00:21:10;;;;;;;2.90;0.60;;;;;;;13.04;100.00;99316.31;4967931;28;20190;-43
2023/10/14 00:23:36;;;;;;;3.97;0.85;;;;;;;13.05;100.00;99310.81;4972068;28;20297;-43
2023/10/14 00:26:03;;;;;;;2.60;0.50;;;;;;;12.99;100.00;99324.72;4971522;28;20205;-42
2023/10/14 00:28:28;;;;;;;2.15;0.82;;;;;;;12.98;100.00;99336.44;4970777;28;20263;-44
2023/10/14 00:30:55;;;;;;;2.72;0.45;;;;;;;13.01;100.00;99335.34;4972343;28;20637;-42
2023/10/14 00:33:21;;;;;;;3.05;0.52;;;;;;;13.01;100.00;99344.28;4970191;28;20205;-43
2023/10/14 00:35:53;;;;;;;3.45;1.13;;;;;;;12.92;100.00;99350.31;4969842;28;20182;-43
2023/10/14 00:38:19;;;;;;;2.30;0.70;;;;;;;12.85;100.00;99362.47;4970272;28;20251;-43
2023/10/14 00:40:46;;;;;;;1.75;0.40;;;;;;;12.83;100.00;99384.09;4966321;28;20194;-44
2023/10/14 00:43:11;;;;;;;4.43;0.80;;;;;;;12.67;100.00;99384.31;4967617;28;20827;-43
2023/10/14 00:45:43;;;;;;;3.78;0.80;;;;;;;12.61;100.00;99375.81;4965863;28;20208;-43
2023/10/14 00:48:13;;;;;;;2.72;0.75;;;;;;;12.63;100.00;99387.31;4972583;28;20261;-44
2023/10/14 00:50:41;;;;;;;2.60;0.80;;;;;;;12.50;100.00;99390.00;4968375;28;20695;-42
2023/10/14 00:53:07;;;;;;;3.53;0.88;;;;;;;12.54;100.00;99396.88;4966593;28;20195;-40
2023/10/14 00:55:54;;;;;;;5.10;0.75;;;;;;;12.39;100.00;99406.00;4969678;28;20205;-42
2023/10/14 00:58:21;;;;;;;4.78;0.90;;;;;;;12.46;100.00;99409.97;4969322;28;20178;-44
2023/10/14 01:00:57;;;;;;;3.55;1.02;;;;;;;12.47;100.00;99392.91;4968804;28;20186;-43
2023/10/14 01:03:31;;;;;;;6.63;0.95;;;;;;;12.60;100.00;99400.97;4971312;28;20699;-42
2023/10/14 01:08:52;;;;;;;4.53;0.80;;;;;;;12.53;100.00;99420.22;4968767;28;20281;-43
2023/10/14 01:11:17;;;;;;;4.60;1.00;;;;;;;12.47;100.00;99417.09;4968681;28;20682;-43
2023/10/14 01:13:46;;;;;;;6.63;0.95;;;;;;;12.39;100.00;99408.69;4968550;28;20229;-42
2023/10/14 01:16:12;;;;;;;5.25;1.10;;;;;;;12.31;100.00;99409.19;4965071;28;20210;-42
2023/10/14 01:18:39;;;;;;;5.38;1.38;;;;;;;12.27;100.00;99413.09;4966573;28;20236;-44
2023/10/14 01:21:06;;;;;;;6.38;1.92;;;;;;;12.32;100.00;99405.56;4971155;28;20189;-44
2023/10/14 01:23:38;;;;;;;9.60;1.17;;;;;;;12.22;100.00;99401.78;4970994;28;20590;-43
2023/10/14 01:26:04;;;;;;;4.90;1.30;;;;;;;12.09;100.00;99393.69;4969299;28;20191;-44
2023/10/14 01:28:31;;;;;;;7.65;1.42;;;;;;;12.06;100.00;99391.22;4967799;28;20182;-43
2023/10/14 01:33:55;;;;;;;7.85;1.58;;;;;;;12.02;100.00;99385.19;4980649;28;20575;-46
2023/10/14 01:36:26;;;;;;;5.20;1.00;;;;;;;12.09;100.00;99396.38;4980907;28;20583;-45
2023/10/14 01:39:00;;;;;;;5.43;1.05;;;;;;;12.07;100.00;99399.19;4966454;28;20205;-44
2023/10/14 01:41:30;;;;;;;4.95;1.20;;;;;;;12.10;100.00;99384.69;4967800;28;20182;-44
2023/10/14 01:43:59;;;;;;;10.57;1.45;;;;;;;12.02;100.00;99392.38;4966215;28;20212;-44
2023/10/14 01:46:27;;;;;;;8.30;1.30;;;;;;;12.08;100.00;99398.19;4962802;28;20178;-42
2023/10/14 01:48:55;;;;;;;8.23;1.17;;;;;;;12.07;100.00;99412.59;4967655;28;20191;-45
2023/10/14 01:51:21;;;;;;;8.02;1.30;;;;;;;11.93;100.00;99413.50;4968157;28;20570;-44
2023/10/14 01:53:46;;;;;;;6.82;1.30;;;;;;;11.91;100.00;99409.19;4968642;28;20292;-43
2023/10/14 01:56:12;;;;;;;7.78;1.40;;;;;;;11.83;100.00;99416.88;4980453;28;20205;-44
2023/10/14 01:58:40;;;;;;;5.40;1.33;;;;;;;11.72;100.00;99426.50;4968859;28;20573;-41
2023/10/14 02:01:15;;;;;;;10.20;1.55;;;;;;;11.73;100.00;99422.00;4967641;28;20686;-44
2023/10/14 02:03:49;;;;;;;9.63;1.80;;;;;;;11.75;100.00;99426.28;4967845;28;20600;-41
2023/10/14 02:06:20;;;;;;;5.30;1.13;;;;;;;11.83;100.00;99443.69;4964281;28;20186;-43
2023/10/14 02:08:48;;;;;;;8.15;1.88;;;;;;;11.71;100.00;99443.53;4970542;28;20257;-44
2023/10/14 02:11:20;;;;;;;7.72;1.40;;;;;;;11.73;100.00;99433.56;4968612;28;20186;-42
2023/10/14 02:13:50;;;;;;;10.88;1.75;;;;;;;11.67;100.00;99438.47;4969935;28;20688;-42
2023/10/14 02:16:18;;;;;;;9.32;1.80;;;;;;;11.72;100.00;99450.66;4966299;28;20205;-43
2023/10/14 02:18:43;;;;;;;9.90;1.70;;;;;;;11.60;100.00;99454.13;4963812;28;20192;-42
2023/10/14 02:21:11;;;;;;;7.70;1.73;;;;;;;11.61;100.00;99460.34;4962930;28;20695;-41
2023/10/14 02:23:49;;;;;;;9.05;1.42;;;;;;;11.63;100.00;99464.66;4967436;28;20310;-42
2023/10/14 02:26:24;;;;;;;7.38;1.85;;;;;;;11.68;100.00;99478.63;4968498;28;20181;-43
2023/10/14 02:28:53;;;;;;;6.78;1.20;;;;;;;11.64;100.00;99486.97;4964002;28;20174;-42
2023/10/14 02:31:29;;;;;;;6.22;1.30;;;;;;;11.62;100.00;99499.63;4960993;28;20209;-42
2023/10/14 02:34:05;;;;;;;5.13;1.00;;;;;;;11.58;100.00;99508.84;4968265;28;20217;-42
2023/10/14 02:36:34;;;;;;;11.43;1.77;;;;;;;11.47;100.00;99515.72;4965447;28;20688;-41
2023/10/14 02:39:14;;;;;;;9.43;1.98;;;;;;;11.59;100.00;99515.91;4966470;28;20233;-41
2023/10/14 02:41:43;;;;;;;12.27;1.70;;;;;;;11.38;100.00;99526.19;4965959;28;20599;-42
2023/10/14 02:46:43;;;;;;;9.77;1.75;;;;;;;11.36;100.00;99534.31;4968762;28;20179;-41
2023/10/14 02:49:18;;;;;;;9.52;1.65;;;;;;;11.39;100.00;99542.19;4964628;28;20178;-42
2023/10/14 02:51:45;;;;;;;12.02;1.77;;;;;;;11.31;100.00;99537.28;4981776;28;20214;-42
2023/10/14 02:54:27;;;;;;;12.35;1.70;;;;;;;11.25;100.00;99545.69;4964743;28;20202;-42
2023/10/14 02:56:59;;;;;;;10.55;1.73;;;;;;;11.14;100.00;99562.44;4968876;28;20268;-41
2023/10/14 02:59:44;;;;;;;13.35;2.20;;;;;;;11.18;100.00;99556.91;4968472;28;20182;-41
2023/10/14 03:02:14;;;;;;;10.38;1.75;;;;;;;11.21;100.00;99557.56;4965773;28;20284;-42
2023/10/14 03:04:49;;;;;;;11.98;2.42;;;;;;;11.02;100.00;99565.88;4966811;28;20205;-40
2023/10/14 03:07:23;;;;;;;14.57;2.47;;;;;;;11.09;100.00;99564.56;4963635;28;20189;-42
2023/10/14 03:09:49;;;;;;;10.88;2.80;;;;;;;11.04;100.00;99557.72;4966679;28;20264;-41
2023/10/14 03:12:18;;;;;;;12.45;1.90;;;;;;;10.98;100.00;99555.44;4964328;28;20178;-40
2023/10/14 03:14:54;;;;;;;14.75;2.20;;;;;;;11.02;100.00;99557.84;4967210;28;20297;-44
2023/10/14 03:17:40;;;;;;;9.85;2.28;;;;;;;10.96;100.00;99554.69;4964259;28;20232;-42
2023/10/14 03:20:34;;;;;;;15.00;2.30;;;;;;;10.92;100.00;99564.72;4968799;28;20660;-42
2023/10/14 03:22:58;;;;;;;11.75;2.28;;;;;;;10.98;100.00;99585.78;4968261;28;20758;-42
2023/10/14 03:25:27;;;;;;;13.63;2.30;;;;;;;10.98;100.00;99585.78;4965208;28;20258;-41
2023/10/14 03:30:46;;;;;;;15.40;2.85;;;;;;;10.91;100.00;99581.72;4968835;28;20205;-44
2023/10/14 03:33:13;;;;;;;18.80;2.60;;;;;;;10.91;100.00;99587.09;4968983;28;20221;-42
2023/10/14 03:35:41;;;;;;;17.52;2.33;;;;;;;10.80;100.00;99593.09;4963891;28;20329;-41
2023/10/14 03:46:29;;;;;;;10.00;2.30;;;;;;;10.85;100.00;99608.91;4965608;28;20570;-42
2023/10/14 03:48:55;;;;;;;13.82;2.47;;;;;;;10.83;100.00;99624.22;4970930;28;20186;-43
2023/10/14 03:51:27;;;;;;;18.38;2.63;;;;;;;10.80;100.00;99629.72;4971659;28;20249;-42
2023/10/14 03:53:58;;;;;;;12.70;2.38;;;;;;;10.81;100.00;99628.78;4967467;28;20721;-41
2023/10/14 03:56:27;;;;;;;13.75;3.17;;;;;;;10.73;100.00;99645.31;4966837;28;20648;-41
2023/10/14 03:58:57;;;;;;;19.02;2.88;;;;;;;10.69;100.00;99633.91;4968735;28;20238;-41
2023/10/14 04:01:34;;;;;;;17.45;2.53;;;;;;;10.71;100.00;99632.00;4971761;28;20193;-40
2023/10/14 04:04:14;;;;;;;15.60;2.67;;;;;;;10.59;100.00;99642.56;4968803;28;20217;-41
2023/10/14 04:06:41;;;;;;;11.23;2.65;;;;;;;10.45;100.00;99630.84;4971380;28;20206;-41
2023/10/14 04:09:10;;;;;;;11.10;2.08;;;;;;;10.54;100.00;99650.88;4966926;28;20717;-42
2023/10/14 04:11:38;;;;;;;13.63;2.40;;;;;;;10.54;100.00;99650.88;4970061;28;20202;-43
2023/10/14 04:14:07;;;;;;;16.13;2.55;;;;;;;10.40;100.00;99650.78;4966361;28;20220;-41
2023/10/14 04:19:26;;;;;;;11.32;2.13;;;;;;;10.23;100.00;99657.91;4968237;28;20185;-42
2023/10/14 04:22:01;;;;;;;10.82;1.90;;;;;;;10.25;100.00;99660.50;4965001;28;20361;-41
2023/10/14 04:30:10;;;;;;;12.43;2.72;;;;;;;10.21;100.00;99661.59;4936392;29;20188;-42
2023/10/14 04:33:04;;;;;;;13.75;2.50;;;;;;;10.23;100.00;99663.28;4967178;28;20201;-44
2023/10/14 04:35:36;;;;;;;11.07;2.28;;;;;;;10.22;100.00;99688.31;4968256;28;20269;-41
2023/10/14 04:38:03;;;;;;;13.05;2.17;;;;;;;10.23;100.00;99695.41;4969273;28;20225;-42
2023/10/14 04:45:51;;;;;;;12.77;2.38;;;;;;;10.06;100.00;99690.97;4966942;28;20199;-41
2023/10/14 04:48:35;;;;;;;12.05;2.55;;;;;;;10.02;100.00;99701.91;4965385;28;20182;-40
2023/10/14 04:51:15;;;;;;;16.23;2.78;;;;;;;10.18;100.00;99715.31;4969984;28;20184;-41
2023/10/14 04:53:44;;;;;;;14.10;2.58;;;;;;;10.18;100.00;99702.78;4967038;28;20284;-42
2023/10/14 04:56:21;;;;;;;10.00;2.55;;;;;;;10.11;100.00;99720.16;4968244;28;20218;-42
2023/10/14 04:58:47;;;;;;;16.55;3.22;;;;;;;10.01;100.00;99719.75;4970929;28;20178;-43
2023/10/14 05:01:18;;;;;;;10.43;2.22;;;;;;;10.06;100.00;99720.41;4970760;28;20174;-42
2023/10/14 05:03:44;;;;;;;16.50;2.85;;;;;;;10.04;100.00;99718.75;4964148;28;20213;-42
2023/10/14 05:08:51;;;;;;;12.00;2.80;;;;;;;10.07;100.00;99730.13;4972212;28;20881;-42
2023/10/14 05:11:18;;;;;;;14.50;2.13;;;;;;;9.93;100.00;99743.41;4968982;28;20657;-43
2023/10/14 05:13:53;;;;;;;13.88;2.47;;;;;;;10.02;100.00;99740.25;4966269;28;20201;-44
2023/10/14 05:16:22;;;;;;;20.25;2.83;;;;;;;9.95;100.00;99743.31;4970585;28;20221;-43
2023/10/14 05:19:01;;;;;;;12.10;2.40;;;;;;;9.91;100.00;99753.31;4966277;28;20233;-43
2023/10/14 05:21:37;;;;;;;10.27;2.72;;;;;;;9.93;100.00;99750.53;4968121;28;20279;-44
2023/10/14 05:24:09;;;;;;;10.10;1.98;;;;;;;9.87;100.00;99746.41;4969708;28;20552;-45
2023/10/14 05:26:45;;;;;;;16.15;2.40;;;;;;;9.80;100.00;99764.59;4970817;28;20186;-42
2023/10/14 05:29:18;;;;;;;9.98;2.25;;;;;;;9.83;100.00;99766.22;4968353;28;20273;-43
2023/10/14 05:31:44;;;;;;;11.68;2.42;;;;;;;9.83;100.00;99783.13;4968200;28;20276;-44
2023/10/14 05:34:10;;;;;;;10.30;1.90;;;;;;;9.75;100.00;99780.03;4968826;28;20282;-42
2023/10/14 05:36:36;;;;;;;13.35;2.20;;;;;;;9.75;100.00;99781.81;4967689;28;20198;-43
2023/10/14 05:39:02;;;;;;;10.80;2.42;;;;;;;9.78;100.00;99789.69;4966346;28;20195;-43
2023/10/14 05:41:29;;;;;;;14.23;2.85;;;;;;;9.74;100.00;99788.97;4965199;28;20189;-40
2023/10/14 05:43:54;;;;;;;9.02;2.10;;;;;;;9.72;100.00;99798.03;4967383;28;20202;-42
2023/10/14 05:46:20;;;;;;;15.30;2.63;;;;;;;9.75;100.00;99811.22;4965781;28;20190;-42
2023/10/14 05:48:46;;;;;;;8.77;1.85;;;;;;;9.78;100.00;99803.06;4968003;28;20233;-42
2023/10/14 05:51:15;;;;;;;9.98;1.80;;;;;;;9.76;100.00;99812.97;4965806;28;20186;-42
2023/10/14 05:53:42;;;;;;;10.43;2.33;;;;;;;9.76;100.00;99808.50;4969626;28;20272;-43
2023/10/14 05:56:14;;;;;;;12.38;2.05;;;;;;;9.76;100.00;99818.31;4967419;28;20660;-42
2023/10/14 05:58:45;;;;;;;14.45;2.67;;;;;;;9.64;100.00;99822.47;4965566;28;20209;-42
2023/10/14 06:01:13;;;;;;;10.18;2.20;;;;;;;9.72;100.00;99828.31;4965050;28;20664;-43
2023/10/14 06:03:43;;;;;;;11.38;2.70;;;;;;;9.66;100.00;99833.97;4965402;28;20201;-42
2023/10/14 06:06:14;;;;;;;10.77;2.35;;;;;;;9.70;100.00;99840.88;4967928;28;20190;-42
2023/10/14 06:08:41;;;;;;;7.90;1.98;;;;;;;9.77;100.00;99858.34;4962006;28;20202;-42
2023/10/14 06:11:07;;;;;;;8.13;1.90;;;;;;;9.74;100.00;99866.53;4965373;28;20213;-41
2023/10/14 06:13:34;;;;;;;8.25;2.38;;;;;;;9.73;100.00;99875.53;4967465;28;20235;-42
2023/10/14 06:16:04;;;;;;;7.95;1.73;;;;;;;9.85;100.00;99880.25;4966552;28;20186;-41
2023/10/14 06:18:31;;;;;;;12.48;2.72;;;;;;;9.97;100.00;99885.91;4965479;28;20214;-41
2023/10/14 06:20:57;;;;;;;12.82;2.28;;;;;;;9.99;100.00;99884.03;4966102;28;20182;-41
2023/10/14 06:23:26;;;;;;;9.35;2.10;;;;;;;9.95;100.00;99890.47;4969670;28;20827;-42
2023/10/14 06:25:55;;;;;;;11.75;2.33;;;;;;;10.01;100.00;99888.34;4967150;28;20544;-41
2023/10/14 06:28:22;;;;;;;11.07;1.95;;;;;;;9.92;100.00;99904.00;4965729;28;20196;-41
2023/10/14 06:30:48;;;;;;;10.95;2.25;;;;;;;9.94;100.00;99902.13;4967830;28;20725;-41
2023/10/14 06:33:13;;;;;;;10.45;1.80;;;;;;;10.08;100.00;99905.00;4967425;28;20704;-44
2023/10/14 06:35:42;;;;;;;10.40;2.22;;;;;;;10.10;100.00;99909.31;4968118;28;20191;-40
2023/10/14 06:38:09;;;;;;;8.60;1.83;;;;;;;10.24;100.00;99921.97;4965507;28;20210;-40
2023/10/14 06:40:42;;;;;;;19.27;2.72;;;;;;;10.32;100.00;99929.66;4968198;28;20198;-41
2023/10/14 06:43:09;;;;;;;18.90;2.50;;;;;;;10.47;100.00;99939.56;4965620;28;20366;-43
2023/10/14 06:45:36;;;;;;;13.18;2.25;;;;;;;10.62;100.00;99937.88;4967790;28;20239;-41
2023/10/14 06:48:03;;;;;;;11.95;2.30;;;;;;;10.47;100.00;99944.94;4966640;28;20178;-42
2023/10/14 06:50:30;;;;;;;9.93;2.00;;;;;;;10.33;100.00;99951.94;4967515;28;20615;-42
2023/10/14 06:52:59;;;;;;;17.00;3.55;;;;;;;10.22;100.00;99952.47;4967787;28;20579;-40
2023/10/14 06:55:26;;;;;;;11.48;4.65;;;;;;;10.40;100.00;99956.88;4969186;28;20192;-42
2023/10/14 06:57:53;;;;;;;16.08;4.75;;;;;;;10.45;100.00;99957.53;4963554;28;20208;-40
2023/10/14 07:00:26;;;;;;;10.95;3.33;;;;;;;10.65;100.00;99959.16;4966135;28;20188;-42
2023/10/14 07:02:53;;;;;;;14.02;2.67;;;;;;;10.80;100.00;99961.97;4962426;28;20589;-42
2023/10/14 07:05:20;;;;;;;13.45;2.70;;;;;;;10.91;100.00;99963.16;4964771;28;20190;-41
2023/10/14 07:07:48;;;;;;;9.88;2.22;;;;;;;11.21;100.00;99958.88;4965871;28;20202;-42
2023/10/14 07:10:14;;;;;;;9.07;1.92;;;;;;;11.34;100.00;99955.41;4967428;28;20198;-42
2023/10/14 07:12:40;;;;;;;14.07;2.67;;;;;;;11.29;100.00;99959.31;4963896;28;20186;-41
2023/10/14 07:15:12;;;;;;;15.88;2.70;;;;;;;11.55;100.00;99952.50;4964312;28;20242;-40
2023/10/14 07:17:42;;;;;;;9.68;1.92;;;;;;;11.78;100.00;99966.44;4965631;28;20202;-41
2023/10/14 07:20:10;;;;;;;13.55;2.40;;;;;;;11.49;100.00;99966.25;4963676;28;20190;-42
2023/10/14 07:22:37;;;;;;;16.65;2.58;;;;;;;11.61;100.00;99967.38;4966448;28;20213;-42
2023/10/14 07:25:05;;;;;;;8.60;1.95;;;;;;;11.87;100.00;99969.47;4962856;28;20277;-41
2023/10/14 07:27:35;;;;;;;12.93;2.53;;;;;;;11.97;100.00;99966.28;4966518;28;20237;-42
2023/10/14 07:30:13;;;;;;;13.93;2.67;;;;;;;11.89;99.63;99970.25;4963334;28;20676;-42
2023/10/14 07:32:47;;;;;;;14.35;2.42;;;;;;;12.14;98.85;99976.91;4966731;28;20272;-42
2023/10/14 07:35:15;;;;;;;9.88;2.33;;;;;;;11.97;98.11;99977.03;4964221;28;20256;-42
2023/10/14 07:37:43;;;;;;;8.65;2.00;;;;;;;11.98;97.56;99981.41;4965649;28;20665;-42
2023/10/14 07:40:22;;;;;;;14.02;2.58;;;;;;;12.03;97.16;99995.47;4961900;28;20186;-39
2023/10/14 07:42:52;;;;;;;11.15;2.38;;;;;;;11.86;97.03;99991.03;4965554;28;20221;-41
2023/10/14 07:45:23;;;;;;;18.05;2.63;;;;;;;12.04;96.87;99992.66;4980058;28;20186;-41
2023/10/14 07:47:48;;;;;;;12.57;2.45;;;;;;;11.97;96.17;100001.19;4962055;28;20190;-41
2023/10/14 07:50:15;;;;;;;11.68;2.25;;;;;;;11.98;95.93;100002.91;4960958;28;20266;-41
2023/10/14 07:52:42;;;;;;;11.30;2.10;;;;;;;11.92;95.09;100004.13;4965656;28;20202;-41
2023/10/14 07:55:15;;;;;;;12.55;2.22;;;;;;;12.14;93.73;100001.06;4966874;28;20198;-41
2023/10/14 07:57:42;;;;;;;10.88;2.33;;;;;;;12.06;92.59;100003.34;4962441;28;20690;-41
2023/10/14 08:00:14;;;;;;;15.60;2.40;;;;;;;12.32;91.48;100002.66;4964680;28;20557;-41
2023/10/14 08:02:41;;;;;;;10.02;2.00;;;;;;;12.14;90.88;99993.88;4963515;28;20200;-41
2023/10/14 08:05:09;;;;;;;7.15;1.77;;;;;;;12.34;90.05;99995.38;4964189;28;20218;-42
2023/10/14 08:07:40;;;;;;;15.88;2.63;;;;;;;12.26;89.08;100003.03;4965644;28;20225;-41
2023/10/14 08:10:21;;;;;;;13.85;2.90;;;;;;;12.42;88.26;100011.06;4968900;28;20253;-43
2023/10/14 08:12:50;;;;;;;13.32;1.85;;;;;;;12.53;87.23;100002.38;4965521;28;20324;-41
2023/10/14 08:15:19;;;;;;;14.07;2.53;;;;;;;12.41;86.11;100003.09;4962993;28;20182;-42
2023/10/14 08:17:48;;;;;;;16.25;2.33;;;;;;;12.61;85.91;100010.81;4964005;28;20209;-43
2023/10/14 08:20:18;;;;;;;10.38;1.83;;;;;;;12.78;84.56;100013.38;4964135;28;20623;-41
2023/10/14 08:22:45;;;;;;;11.23;2.83;;;;;;;12.77;84.22;100014.34;4964982;28;20628;-41
2023/10/14 08:25:15;;;;;;;10.80;2.25;;;;;;;13.04;83.42;100018.97;4966926;28;20209;-41
2023/10/14 08:27:41;;;;;;;12.50;2.08;;;;;;;13.06;82.80;100006.31;4970420;28;20206;-42
2023/10/14 08:30:10;;;;;;;15.73;2.35;;;;;;;12.91;81.92;100012.63;4966923;28;20183;-41
2023/10/14 08:32:46;;;;;;;11.73;2.22;;;;;;;13.26;81.85;100020.34;4968236;28;20233;-43
2023/10/14 08:35:17;;;;;;;12.38;2.30;;;;;;;13.34;81.17;100026.16;4965242;28;20699;-41
2023/10/14 08:37:51;;;;;;;12.75;2.30;;;;;;;13.11;80.63;100027.53;4969259;28;20304;-42
2023/10/14 08:40:26;;;;;;;10.73;2.53;;;;;;;13.19;79.95;100034.19;4970129;28;20241;-42
2023/10/14 08:42:57;;;;;;;12.05;2.20;;;;;;;13.35;80.05;100031.41;4965335;28;20199;-42
2023/10/14 08:45:26;;;;;;;10.80;2.53;;;;;;;13.18;80.11;100050.41;4969879;28;20206;-42
2023/10/14 08:47:54;;;;;;;11.50;2.50;;;;;;;13.50;79.80;100048.44;4967907;28;20178;-42
2023/10/14 08:50:23;;;;;;;10.05;2.05;;;;;;;13.45;79.53;100052.41;4965095;28;20205;-41
2023/10/14 08:52:51;;;;;;;11.93;2.25;;;;;;;13.76;79.15;100062.06;4969929;28;20233;-42
2023/10/14 08:55:20;;;;;;;12.10;2.10;;;;;;;13.73;79.09;100063.13;4967712;28;20178;-42
2023/10/14 08:57:48;;;;;;;12.63;2.22;;;;;;;13.71;78.41;100050.72;4974607;28;20206;-43
2023/10/14 09:00:23;;;;;;;13.23;2.30;;;;;;;13.13;77.47;100050.69;4966617;28;20198;-41
2023/10/14 09:02:54;;;;;;;11.05;2.03;;;;;;;13.06;77.87;100046.66;4971492;28;20192;-41
2023/10/14 09:05:20;;;;;;;12.05;2.30;;;;;;;13.48;78.24;100058.44;4964631;28;20278;-42
2023/10/14 09:07:50;;;;;;;11.63;2.75;;;;;;;13.34;78.05;100059.31;4966956;28;20186;-41
2023/10/14 09:10:18;;;;;;;13.25;2.17;;;;;;;13.51;76.61;100050.19;4964992;28;20190;-42
2023/10/14 09:12:57;;;;;;;14.65;2.17;;;;;;;13.28;76.49;100050.72;4968570;28;20256;-41
2023/10/14 09:15:25;;;;;;;11.32;2.17;;;;;;;13.44;76.13;100042.56;4965351;28;20189;-42
2023/10/14 09:17:55;;;;;;;16.17;2.90;;;;;;;13.13;74.04;100026.47;4965946;28;20209;-43
2023/10/14 09:20:38;;;;;;;9.20;2.03;;;;;;;13.13;73.95;100039.94;4965932;28;20664;-41
2023/10/14 09:23:10;;;;;;;9.43;2.17;;;;;;;13.39;73.40;100035.66;4968232;28;20209;-41
2023/10/14 09:25:43;;;;;;;11.00;2.65;;;;;;;13.65;73.21;100038.53;4970317;28;20241;-42
2023/10/14 09:28:08;;;;;;;12.00;1.95;;;;;;;13.30;72.75;100044.31;4970222;28;20178;-43
2023/10/14 09:30:36;;;;;;;7.00;1.50;;;;;;;13.34;72.51;100045.84;4964152;28;20300;-43
2023/10/14 09:33:02;;;;;;;10.80;2.65;;;;;;;13.58;71.46;100029.13;4965488;28;20218;-44
2023/10/14 09:35:30;;;;;;;14.15;3.10;;;;;;;13.52;70.78;100029.50;4968343;28;20290;-46
2023/10/14 09:37:59;;;;;;;11.50;2.90;;;;;;;13.40;70.43;100020.38;4966615;28;20249;-45
2023/10/14 09:40:25;;;;;;;16.45;2.80;;;;;;;13.04;71.31;100051.25;4963653;28;20187;-44
2023/10/14 09:42:52;;;;;;;16.40;3.20;;;;;;;12.65;73.25;100084.94;4964936;28;20585;-43
2023/10/14 09:45:19;;;;;;;15.60;3.55;;;;;;;12.33;74.87;100093.06;4968760;28;20189;-44
2023/10/14 09:47:47;;;;;;;14.13;2.75;;;;;;;11.86;76.61;100117.19;4966290;28;20284;-44
2023/10/14 09:50:14;;;;;;;14.15;3.10;;;;;;;11.84;77.11;100138.72;4966906;28;20208;-44
2023/10/14 09:52:45;;;;;;;14.75;2.58;;;;;;;11.72;77.60;100145.63;4966608;28;20202;-43
2023/10/14 09:55:14;;;;;;;14.15;2.70;;;;;;;11.93;78.13;100148.97;4966974;28;20206;-45
2023/10/14 09:57:45;;;;;;;8.82;2.35;;;;;;;12.47;78.35;100163.94;4966317;28;20214;-44
2023/10/14 10:00:11;;;;;;;10.77;2.47;;;;;;;12.72;76.75;100155.31;4968663;28;20196;-44
2023/10/14 10:02:43;;;;;;;13.65;2.85;;;;;;;12.74;75.62;100148.91;4967128;28;20214;-44
2023/10/14 10:05:15;;;;;;;10.80;1.88;;;;;;;12.52;73.36;100129.59;4963607;28;20601;-44
2023/10/14 10:08:19;;;;;;;4.75;1.10;;;;;;;11.86;71.21;100120.72;4968727;28;20660;-44
2023/10/14 10:10:47;;;;;;;4.47;1.00;;;;;;;11.22;70.30;100092.88;4967117;28;20687;-44
2023/10/14 10:13:14;;;;;;;5.00;0.85;;;;;;;11.04;71.47;100108.09;4967741;28;20237;-45
2023/10/14 10:15:40;;;;;;;4.22;1.42;;;;;;;11.23;71.63;100112.50;4965539;28;20194;-43
2023/10/14 10:18:12;;;;;;;3.17;0.73;;;;;;;11.48;70.74;100096.00;4967012;28;20210;-44
2023/10/14 10:20:47;;;;;;;3.58;0.75;;;;;;;11.63;69.81;100103.22;4964358;28;20195;-42
2023/10/14 10:23:14;;;;;;;3.50;1.27;;;;;;;11.57;69.12;100090.13;4967561;28;20205;-44
2023/10/14 10:25:47;;;;;;;5.47;1.00;;;;;;;12.07;68.58;100096.34;4966791;28;20190;-44
2023/10/14 10:28:25;;;;;;;6.03;1.20;;;;;;;12.28;67.71;100081.69;4967455;28;20657;-44
2023/10/14 10:30:56;;;;;;;2.90;0.82;;;;;;;12.29;66.87;100086.13;4961506;28;20196;-44
2023/10/14 10:33:23;;;;;;;2.42;0.98;;;;;;;11.96;67.22;100096.97;4965605;28;20215;-44
2023/10/14 10:35:56;;;;;;;6.55;1.38;;;;;;;11.98;67.70;100094.19;4965619;28;20289;-44
2023/10/14 10:38:23;;;;;;;5.38;1.20;;;;;;;11.46;69.09;100113.97;4967763;28;20221;-46
2023/10/14 10:41:19;;;;;;;6.38;1.45;;;;;;;11.31;70.80;100147.84;4966786;28;20189;-44
2023/10/14 10:43:46;;;;;;;5.28;1.70;;;;;;;11.44;71.71;100167.69;4969881;28;20539;-45
2023/10/14 10:46:37;;;;;;;7.32;1.90;;;;;;;11.26;72.46;100165.97;4961132;28;20221;-44
2023/10/14 10:49:06;;;;;;;6.93;1.95;;;;;;;11.29;73.48;100195.31;4963585;28;20178;-45
2023/10/14 10:51:36;;;;;;;9.07;2.35;;;;;;;11.37;74.25;100200.25;4964782;28;20198;-46
2023/10/14 10:54:02;;;;;;;11.07;1.73;;;;;;;11.50;75.23;100212.97;4961566;28;20207;-44
2023/10/14 10:56:29;;;;;;;10.27;1.73;;;;;;;11.66;75.53;100212.19;4962182;28;20182;-43
2023/10/14 10:58:58;;;;;;;10.23;2.13;;;;;;;11.70;75.79;100222.66;4963402;28;20252;-45
2023/10/14 11:01:24;;;;;;;6.25;1.55;;;;;;;11.69;75.43;100223.59;4964404;28;20284;-46
2023/10/14 11:03:49;;;;;;;8.02;1.75;;;;;;;11.62;75.25;100214.16;4962257;28;20636;-45
2023/10/14 11:06:17;;;;;;;7.78;1.65;;;;;;;11.45;76.23;100212.34;4967333;28;20245;-45
2023/10/14 11:08:46;;;;;;;5.88;1.63;;;;;;;11.51;77.02;100221.91;4962755;28;20186;-46
2023/10/14 11:11:14;;;;;;;9.73;1.58;;;;;;;11.52;77.04;100219.13;4963621;28;20653;-45
2023/10/14 11:13:40;;;;;;;7.05;1.55;;;;;;;11.39;77.66;100227.88;4965129;28;20218;-46
2023/10/14 11:16:12;;;;;;;6.18;2.00;;;;;;;11.74;78.33;100243.03;4963951;28;20182;-45
2023/10/14 11:18:48;;;;;;;8.13;1.95;;;;;;;12.14;78.44;100250.81;4965055;28;20594;-45
2023/10/14 11:21:15;;;;;;;9.40;2.03;;;;;;;12.18;78.09;100243.44;4958601;28;20257;-44
2023/10/14 11:23:42;;;;;;;8.07;1.92;;;;;;;12.36;77.97;100239.75;4968901;28;20742;-46
2023/10/14 11:26:12;;;;;;;10.68;2.35;;;;;;;12.25;78.27;100247.53;4965368;28;20198;-46
2023/10/14 11:28:40;;;;;;;7.97;1.90;;;;;;;11.93;78.37;100236.72;4966573;28;20550;-44
2023/10/14 11:31:09;;;;;;;9.52;1.65;;;;;;;11.92;78.24;100260.00;4979787;28;20650;-44
2023/10/14 11:33:37;;;;;;;8.30;2.25;;;;;;;11.75;78.50;100258.19;4964030;28;20298;-43
2023/10/14 11:36:04;;;;;;;10.88;2.28;;;;;;;11.62;78.82;100262.44;4963100;28;20193;-45
2023/10/14 11:38:31;;;;;;;11.52;2.33;;;;;;;11.66;78.38;100258.66;4963306;28;20572;-44
2023/10/14 11:41:02;;;;;;;14.93;2.50;;;;;;;11.82;78.01;100264.09;4971011;28;20186;-45
2023/10/14 11:43:30;;;;;;;12.63;2.38;;;;;;;11.90;78.06;100253.00;4965709;28;20206;-45
2023/10/14 11:45:56;;;;;;;8.55;1.85;;;;;;;11.73;77.72;100253.84;4962859;28;20187;-45
2023/10/14 11:48:33;;;;;;;10.02;2.30;;;;;;;11.67;78.06;100252.34;4965160;28;20648;-44
2023/10/14 11:51:02;;;;;;;7.32;2.20;;;;;;;11.58;78.39;100243.91;4965448;28;20195;-46
2023/10/14 11:53:32;;;;;;;10.70;2.40;;;;;;;11.59;78.55;100264.41;4961175;28;20228;-43
2023/10/14 11:56:02;;;;;;;12.40;2.53;;;;;;;11.47;79.15;100276.66;4962648;28;20257;-46
2023/10/14 11:58:37;;;;;;;12.65;2.55;;;;;;;11.22;80.02;100302.03;4961928;28;20292;-43
2023/10/14 12:01:04;;;;;;;13.25;2.63;;;;;;;11.21;80.49;100304.78;4968633;28;20197;-44
2023/10/14 12:03:29;;;;;;;14.68;3.20;;;;;;;11.16;80.66;100301.47;4964479;28;20323;-46
2023/10/14 12:05:59;;;;;;;10.98;2.30;;;;;;;11.12;80.62;100298.03;4969502;28;20188;-44
2023/10/14 12:08:27;;;;;;;13.57;2.42;;;;;;;11.14;80.30;100294.34;4968556;28;20599;-46
2023/10/14 12:10:53;;;;;;;13.55;2.90;;;;;;;11.22;79.84;100290.44;4964738;28;20186;-46